Time;durP1;ratioP1;P1;durP2;ratioP2;P2;SDS_P1;SDS_P2;PMS_P1;PMS_P2;Temp;Humidity;BMP_temperature;BMP_pressure;BME280_temperature;BME280_humidity;BME280_pressure;Samples;Min_cycle;Max_cycle;Signal;HPM_P1;HPM_P2
2022/07/23 00:01:19;;;;;;;;;;;26.40;87.90;;;;;;5075267;28;19931;-71
2022/07/23 00:03:44;;;;;;;;;;;26.40;87.90;;;;;;5075268;28;19912;-71
2022/07/23 00:06:10;;;;;;;;;;;26.40;87.90;;;;;;5074907;28;19970;-69
2022/07/23 00:08:36;;;;;;;;;;;26.40;87.90;;;;;;5074930;28;19973;-69
2022/07/23 00:11:01;;;;;;;;;;;26.40;87.90;;;;;;5057261;28;19908;-69
2022/07/23 00:13:27;;;;;;;;;;;26.40;87.90;;;;;;5075084;28;19915;-70
2022/07/23 00:15:52;;;;;;;;;;;26.40;87.90;;;;;;5074886;28;19917;-70
2022/07/23 00:18:18;;;;;;;;;;;26.40;87.90;;;;;;5074848;28;19908;-70
2022/07/23 00:20:43;;;;;;;;;;;26.40;87.90;;;;;;5056908;28;20012;-70
2022/07/23 00:23:09;;;;;;;;;;;26.40;87.90;;;;;;5074828;28;19908;-69
2022/07/23 00:25:34;;;;;;;;;;;26.40;87.90;;;;;;5074484;28;19909;-70
2022/07/23 00:28:02;;;;;;;;;;;26.40;87.90;;;;;;5074481;28;20193;-70
2022/07/23 00:30:31;;;;;;;;;;;26.40;87.90;;;;;;5074431;28;19915;-70
2022/07/23 00:32:58;;;;;;;;;;;26.40;87.90;;;;;;5056881;28;19959;-70
2022/07/23 00:35:24;;;;;;;;;;;26.40;87.90;;;;;;5074312;28;19916;-71
2022/07/23 00:37:50;;;;;;;;;;;26.40;87.90;;;;;;5074625;28;19909;-70
2022/07/23 00:40:15;;;;;;;;;;;26.40;87.90;;;;;;5073985;28;19927;-70
2022/07/23 00:42:41;;;;;;;;;;;26.40;87.90;;;;;;5074442;28;20260;-70
2022/07/23 00:45:07;;;;;;;;;;;26.40;88.50;;;;;;5074542;28;19908;-70
2022/07/23 00:47:32;;;;;;;;;;;26.40;87.90;;;;;;5056445;28;19912;-70
2022/07/23 00:49:58;;;;;;;;;;;26.40;87.90;;;;;;5073965;28;19967;-70
2022/07/23 00:52:23;;;;;;;;;;;26.40;87.90;;;;;;5073354;28;20374;-71
2022/07/23 00:54:49;;;;;;;;;;;26.40;87.90;;;;;;5074148;28;19916;-70
2022/07/23 00:57:15;;;;;;;;;;;26.40;87.90;;;;;;5074258;28;19915;-70
2022/07/23 00:59:41;;;;;;;;;;;26.40;87.90;;;;;;5055962;28;19973;-70
2022/07/23 01:02:06;;;;;;;;;;;26.40;87.90;;;;;;5074200;28;20382;-70
2022/07/23 01:04:32;;;;;;;;;;;26.40;87.90;;;;;;5073861;28;19918;-70
2022/07/23 01:06:57;;;;;;;;;;;26.40;87.90;;;;;;5073876;28;19908;-71
2022/07/23 01:09:23;;;;;;;;;;;26.40;87.90;;;;;;5074049;28;19916;-70
2022/07/23 01:11:50;;;;;;;;;;;26.40;87.90;;;;;;5073475;28;19908;-71
2022/07/23 01:14:16;;;;;;;;;;;26.40;87.90;;;;;;5055766;28;19908;-70
2022/07/23 01:16:42;;;;;;;;;;;26.40;87.90;;;;;;5073761;28;19947;-69
2022/07/23 01:19:08;;;;;;;;;;;26.40;87.90;;;;;;5073820;28;19908;-70
2022/07/23 01:21:38;;;;;;;;;;;26.40;87.90;;;;;;5056054;28;19956;-70
2022/07/23 01:24:04;;;;;;;;;;;26.40;87.90;;;;;;5074128;28;19908;-70
2022/07/23 01:26:29;;;;;;;;;;;26.50;87.90;;;;;;5074056;28;19915;-70
2022/07/23 01:28:55;;;;;;;;;;;26.40;87.80;;;;;;5073774;28;19909;-70
2022/07/23 01:31:20;;;;;;;;;;;26.40;87.80;;;;;;5074068;28;19954;-71
2022/07/23 01:33:45;;;;;;;;;;;26.40;87.80;;;;;;5073799;28;20393;-70
2022/07/23 01:36:11;;;;;;;;;;;26.40;87.70;;;;;;5073648;28;19940;-70
2022/07/23 01:38:36;;;;;;;;;;;26.40;87.60;;;;;;5074290;28;19915;-70
2022/07/23 01:41:02;;;;;;;;;;;26.50;87.60;;;;;;5056084;28;20003;-70
2022/07/23 01:43:27;;;;;;;;;;;26.40;87.50;;;;;;5073945;28;20355;-70
2022/07/23 01:45:53;;;;;;;;;;;26.40;87.40;;;;;;5073566;28;19932;-70
2022/07/23 01:48:18;;;;;;;;;;;26.40;87.40;;;;;;5074057;28;19908;-70
2022/07/23 01:50:45;;;;;;;;;;;26.40;87.40;;;;;;5073823;28;19908;-70
2022/07/23 01:53:11;;;;;;;;;;;26.40;87.50;;;;;;5073744;28;19909;-70
2022/07/23 01:55:36;;;;;;;;;;;26.40;87.50;;;;;;5073641;28;19923;-70
2022/07/23 01:58:02;;;;;;;;;;;26.40;87.60;;;;;;5073570;28;19908;-71
2022/07/23 02:00:27;;;;;;;;;;;26.40;87.60;;;;;;5055531;28;19920;-70
2022/07/23 02:02:53;;;;;;;;;;;26.40;87.70;;;;;;5074612;28;19909;-71
2022/07/23 02:05:18;;;;;;;;;;;26.40;87.70;;;;;;5059977;28;19934;-70
2022/07/23 02:07:44;;;;;;;;;;;26.30;87.70;;;;;;5077387;28;19909;-70
2022/07/23 02:10:09;;;;;;;;;;;26.30;87.80;;;;;;5077095;28;19912;-71
2022/07/23 02:12:35;;;;;;;;;;;26.30;87.80;;;;;;5077008;28;19947;-70
2022/07/23 02:15:01;;;;;;;;;;;26.30;87.80;;;;;;5077289;28;19916;-70
2022/07/23 02:17:26;;;;;;;;;;;26.30;87.80;;;;;;5077325;28;19915;-70
2022/07/23 02:19:52;;;;;;;;;;;26.30;87.80;;;;;;5059261;28;20007;-70
2022/07/23 02:22:17;;;;;;;;;;;26.30;87.80;;;;;;5077133;28;19965;-69
2022/07/23 02:24:42;;;;;;;;;;;26.30;87.80;;;;;;5077179;28;19909;-69
2022/07/23 02:27:08;;;;;;;;;;;26.30;87.90;;;;;;5076848;28;20282;-70
2022/07/23 02:29:33;;;;;;;;;;;26.30;87.90;;;;;;5077000;28;19909;-70
2022/07/23 02:31:59;;;;;;;;;;;26.30;87.90;;;;;;5076735;28;19909;-70
2022/07/23 02:34:24;;;;;;;;;;;26.30;88.00;;;;;;5076725;28;19951;-70
2022/07/23 02:36:50;;;;;;;;;;;26.20;88.40;;;;;;5059082;28;19909;-70
2022/07/23 02:39:15;;;;;;;;;;;26.20;87.90;;;;;;5077009;28;19912;-70
2022/07/23 02:41:41;;;;;;;;;;;26.20;88.00;;;;;;5059086;28;19970;-69
2022/07/23 02:44:06;;;;;;;;;;;26.20;88.00;;;;;;5076755;28;20464;-71
2022/07/23 02:46:32;;;;;;;;;;;26.20;88.00;;;;;;5076408;28;19912;-71
2022/07/23 02:48:57;;;;;;;;;;;26.20;88.10;;;;;;5076689;28;19909;-70
2022/07/23 02:51:23;;;;;;;;;;;26.20;88.10;;;;;;5076909;28;19933;-70
2022/07/23 02:53:48;;;;;;;;;;;26.20;88.10;;;;;;5058697;28;19975;-70
2022/07/23 02:56:13;;;;;;;;;;;26.20;88.10;;;;;;5058547;28;20329;-70
2022/07/23 02:58:39;;;;;;;;;;;26.20;88.10;;;;;;5058155;28;19924;-70
2022/07/23 03:01:04;;;;;;;;;;;26.20;88.10;;;;;;5076248;28;19915;-71
2022/07/23 03:03:30;;;;;;;;;;;26.20;88.10;;;;;;5076184;28;19908;-70
2022/07/23 03:05:56;;;;;;;;;;;26.20;88.20;;;;;;5058497;28;19919;-70
2022/07/23 03:08:21;;;;;;;;;;;26.20;88.20;;;;;;5058475;28;20273;-70
2022/07/23 03:10:46;;;;;;;;;;;26.20;88.20;;;;;;5076284;28;19916;-70
2022/07/23 03:13:12;;;;;;;;;;;26.20;88.10;;;;;;5076005;28;20006;-70
2022/07/23 03:15:37;;;;;;;;;;;26.30;88.20;;;;;;5074946;28;19917;-70
2022/07/23 03:18:03;;;;;;;;;;;26.20;88.20;;;;;;5075924;28;19999;-70
2022/07/23 03:20:28;;;;;;;;;;;26.20;88.20;;;;;;5076455;28;19908;-70
2022/07/23 03:22:54;;;;;;;;;;;26.20;88.20;;;;;;5075832;28;20321;-70
2022/07/23 03:25:19;;;;;;;;;;;26.20;88.20;;;;;;5075793;28;19916;-70
2022/07/23 03:27:45;;;;;;;;;;;26.20;88.20;;;;;;5076007;28;20383;-69
2022/07/23 03:30:11;;;;;;;;;;;26.20;88.20;;;;;;5075883;28;19909;-70
2022/07/23 03:32:37;;;;;;;;;;;26.20;88.20;;;;;;5091636;28;20259;-71
2022/07/23 03:35:02;;;;;;;;;;;26.20;88.20;;;;;;5057732;28;19924;-70
2022/07/23 03:37:28;;;;;;;;;;;26.20;88.20;;;;;;5075558;28;19923;-70
2022/07/23 03:39:53;;;;;;;;;;;26.20;88.20;;;;;;5057841;28;19915;-70
2022/07/23 03:42:19;;;;;;;;;;;26.20;88.20;;;;;;5057828;28;20252;-70
2022/07/23 03:44:44;;;;;;;;;;;26.20;88.20;;;;;;5075382;28;20003;-69
2022/07/23 03:47:10;;;;;;;;;;;26.20;88.20;;;;;;5075563;28;20378;-70
2022/07/23 03:49:35;;;;;;;;;;;26.20;88.20;;;;;;5075514;28;19919;-70
2022/07/23 03:52:01;;;;;;;;;;;26.20;88.30;;;;;;5075477;28;20220;-70
2022/07/23 03:54:26;;;;;;;;;;;26.20;88.30;;;;;;5074957;28;20256;-71
2022/07/23 03:56:52;;;;;;;;;;;26.20;88.30;;;;;;5075392;28;19909;-71
2022/07/23 03:59:17;;;;;;;;;;;26.10;88.20;;;;;;5075121;28;20352;-70
2022/07/23 04:01:43;;;;;;;;;;;26.10;88.20;;;;;;5075197;28;19935;-70
2022/07/23 04:04:08;;;;;;;;;;;26.10;88.20;;;;;;5075197;28;19909;-70
2022/07/23 04:06:34;;;;;;;;;;;26.20;88.30;;;;;;5074689;28;19932;-70
2022/07/23 04:08:59;;;;;;;;;;;26.20;88.30;;;;;;5074883;28;19909;-70
2022/07/23 04:11:26;;;;;;;;;;;26.10;88.30;;;;;;5074955;28;20085;-71
2022/07/23 04:13:51;;;;;;;;;;;26.20;88.30;;;;;;5056865;28;19909;-71
2022/07/23 04:16:16;;;;;;;;;;;26.10;88.30;;;;;;5074724;28;19978;-71
2022/07/23 04:18:42;;;;;;;;;;;26.10;88.30;;;;;;5074949;28;19909;-71
2022/07/23 04:21:07;;;;;;;;;;;26.10;88.30;;;;;;5074598;28;19908;-70
2022/07/23 04:23:33;;;;;;;;;;;26.20;88.40;;;;;;5075059;28;19956;-71
2022/07/23 04:25:58;;;;;;;;;;;26.10;88.30;;;;;;5074634;28;19912;-70
2022/07/23 04:28:24;;;;;;;;;;;26.10;88.30;;;;;;5074266;28;19913;-70
2022/07/23 04:30:49;;;;;;;;;;;26.10;88.30;;;;;;5074190;28;19920;-70
2022/07/23 04:33:15;;;;;;;;;;;26.20;88.30;;;;;;5074448;28;20011;-69
2022/07/23 04:35:40;;;;;;;;;;;26.20;88.30;;;;;;5074581;28;20275;-70
2022/07/23 04:38:06;;;;;;;;;;;26.20;88.30;;;;;;5074535;28;20260;-71
2022/07/23 04:40:31;;;;;;;;;;;26.10;88.30;;;;;;5074484;28;19912;-71
2022/07/23 04:42:57;;;;;;;;;;;26.20;88.30;;;;;;5074161;28;19916;-70
2022/07/23 04:45:25;;;;;;;;;;;26.10;88.30;;;;;;5074086;28;19961;-70
2022/07/23 04:47:51;;;;;;;;;;;26.20;88.30;;;;;;5074399;28;19908;-70
2022/07/23 04:50:21;;;;;;;;;;;26.20;88.30;;;;;;5074080;28;19999;-70
2022/07/23 04:52:50;;;;;;;;;;;26.10;88.30;;;;;;5074603;28;20314;-70
2022/07/23 04:55:15;;;;;;;;;;;26.20;88.40;;;;;;5073818;28;20314;-71
2022/07/23 04:57:41;;;;;;;;;;;26.10;88.20;;;;;;5074217;28;19915;-70
2022/07/23 05:00:07;;;;;;;;;;;26.20;88.30;;;;;;5073811;28;20282;-71
2022/07/23 05:02:32;;;;;;;;;;;26.10;88.30;;;;;;5073880;28;19958;-70
2022/07/23 05:04:58;;;;;;;;;;;26.20;88.30;;;;;;5074174;28;19908;-70
2022/07/23 05:07:24;;;;;;;;;;;26.20;88.30;;;;;;5074142;28;20370;-70
2022/07/23 05:09:49;;;;;;;;;;;26.20;88.30;;;;;;5074172;28;20009;-70
2022/07/23 05:12:15;;;;;;;;;;;26.20;88.30;;;;;;5056212;28;20566;-69
2022/07/23 05:14:41;;;;;;;;;;;26.20;88.30;;;;;;5073888;28;19908;-70
2022/07/23 05:17:07;;;;;;;;;;;26.20;88.20;;;;;;5073743;28;19915;-70
2022/07/23 05:19:33;;;;;;;;;;;26.20;88.30;;;;;;5073932;28;19953;-70
2022/07/23 05:21:59;;;;;;;;;;;26.20;88.30;;;;;;5073626;28;20368;-70
2022/07/23 05:24:24;;;;;;;;;;;26.20;88.30;;;;;;5073916;28;20271;-70
2022/07/23 05:26:50;;;;;;;;;;;26.20;88.20;;;;;;5073872;28;20275;-70
2022/07/23 05:29:15;;;;;;;;;;;26.20;88.30;;;;;;5073803;28;19999;-69
2022/07/23 05:31:41;;;;;;;;;;;26.20;88.30;;;;;;5073462;28;19908;-71
2022/07/23 05:34:06;;;;;;;;;;;26.20;88.30;;;;;;5073695;28;19919;-71
2022/07/23 05:36:32;;;;;;;;;;;26.20;88.30;;;;;;5073383;28;19928;-71
2022/07/23 05:38:57;;;;;;;;;;;26.20;88.30;;;;;;5076829;28;19916;-71
2022/07/23 05:41:23;;;;;;;;;;;26.20;88.30;;;;;;5077892;28;19917;-70
2022/07/23 05:43:48;;;;;;;;;;;26.20;88.30;;;;;;5077407;28;19908;-71
2022/07/23 05:46:14;;;;;;;;;;;26.20;88.30;;;;;;5077803;28;19908;-70
2022/07/23 05:48:39;;;;;;;;;;;26.20;88.30;;;;;;5077619;28;20020;-71
2022/07/23 05:51:06;;;;;;;;;;;26.20;88.30;;;;;;5077898;28;19908;-71
2022/07/23 05:53:32;;;;;;;;;;;26.20;88.30;;;;;;5077357;28;19912;-71
2022/07/23 05:55:57;;;;;;;;;;;26.20;88.20;;;;;;5059372;28;19923;-71
2022/07/23 05:58:23;;;;;;;;;;;26.20;88.20;;;;;;5077492;28;19978;-70
2022/07/23 06:00:49;;;;;;;;;;;26.20;88.20;;;;;;5059711;28;19913;-69
2022/07/23 06:03:14;;;;;;;;;;;26.20;88.30;;;;;;5059476;28;19909;-70
2022/07/23 06:05:40;;;;;;;;;;;26.20;88.30;;;;;;5077183;28;20001;-70
2022/07/23 06:08:05;;;;;;;;;;;26.20;88.40;;;;;;5077254;28;19913;-70
2022/07/23 06:10:31;;;;;;;;;;;26.20;88.40;;;;;;5059356;28;20406;-71
2022/07/23 06:12:56;;;;;;;;;;;26.20;88.30;;;;;;5077188;28;19915;-70
2022/07/23 06:15:22;;;;;;;;;;;26.20;88.40;;;;;;5076906;28;19939;-70
2022/07/23 06:17:47;;;;;;;;;;;26.20;88.30;;;;;;5058917;28;19908;-70
2022/07/23 06:20:13;;;;;;;;;;;26.20;88.30;;;;;;5076868;28;19940;-71
2022/07/23 06:22:38;;;;;;;;;;;26.20;88.40;;;;;;5059129;28;19927;-70
2022/07/23 06:25:04;;;;;;;;;;;26.20;88.40;;;;;;5077226;28;19909;-70
2022/07/23 06:27:30;;;;;;;;;;;26.20;88.40;;;;;;5058889;28;19948;-71
2022/07/23 06:29:55;;;;;;;;;;;26.20;88.40;;;;;;5076757;28;19912;-71
2022/07/23 06:32:21;;;;;;;;;;;26.20;88.40;;;;;;5076830;28;19955;-71
2022/07/23 06:34:46;;;;;;;;;;;26.20;88.40;;;;;;5058759;28;19932;-70
2022/07/23 06:37:12;;;;;;;;;;;26.20;88.50;;;;;;5076432;28;19909;-71
2022/07/23 06:39:37;;;;;;;;;;;26.20;88.40;;;;;;5058397;28;19909;-71
2022/07/23 06:42:03;;;;;;;;;;;26.20;88.40;;;;;;5076525;28;19908;-71
2022/07/23 06:44:28;;;;;;;;;;;26.20;88.50;;;;;;5076602;28;20311;-72
2022/07/23 06:46:54;;;;;;;;;;;26.20;88.50;;;;;;5076128;28;20351;-72
2022/07/23 06:49:19;;;;;;;;;;;26.20;88.50;;;;;;5057225;28;20434;-71
2022/07/23 06:51:45;;;;;;;;;;;26.20;89.00;;;;;;5076248;28;19908;-71
2022/07/23 06:54:10;;;;;;;;;;;26.20;88.50;;;;;;5076467;28;19916;-71
2022/07/23 06:56:36;;;;;;;;;;;26.20;88.50;;;;;;5076239;28;19964;-71
2022/07/23 06:59:02;;;;;;;;;;;26.30;88.50;;;;;;5076025;28;20003;-72
2022/07/23 07:01:27;;;;;;;;;;;26.20;88.50;;;;;;5058283;28;19916;-71
2022/07/23 07:03:53;;;;;;;;;;;26.30;88.60;;;;;;5058257;28;19957;-71
2022/07/23 07:06:19;;;;;;;;;;;26.30;88.60;;;;;;5076356;28;20030;-71
2022/07/23 07:08:44;;;;;;;;;;;26.30;88.50;;;;;;5058192;28;19915;-71
2022/07/23 07:11:10;;;;;;;;;;;26.30;88.50;;;;;;5076184;28;20394;-72
2022/07/23 07:13:36;;;;;;;;;;;26.30;88.50;;;;;;5075899;28;20052;-72
2022/07/23 07:16:02;;;;;;;;;;;26.30;88.50;;;;;;5075844;28;20318;-72
2022/07/23 07:18:27;;;;;;;;;;;26.30;88.50;;;;;;5075602;28;20291;-72
2022/07/23 07:20:53;;;;;;;;;;;26.30;88.40;;;;;;5075685;28;19915;-71
2022/07/23 07:23:20;;;;;;;;;;;26.30;88.50;;;;;;5058035;28;19931;-71
2022/07/23 07:25:45;;;;;;;;;;;26.30;88.40;;;;;;5075860;28;19931;-71
2022/07/23 07:28:11;;;;;;;;;;;26.30;88.40;;;;;;5075591;28;20350;-71
2022/07/23 07:30:36;;;;;;;;;;;26.30;88.40;;;;;;5075620;28;19908;-71
2022/07/23 07:33:02;;;;;;;;;;;26.30;88.40;;;;;;5075579;28;19954;-71
2022/07/23 07:35:27;;;;;;;;;;;26.30;88.40;;;;;;5075286;28;20282;-71
2022/07/23 07:37:53;;;;;;;;;;;26.30;88.40;;;;;;5075606;28;19916;-71
2022/07/23 07:40:19;;;;;;;;;;;26.40;88.40;;;;;;5057760;28;20007;-71
2022/07/23 07:42:45;;;;;;;;;;;26.30;88.40;;;;;;5075412;28;19909;-72
2022/07/23 07:45:11;;;;;;;;;;;26.30;88.40;;;;;;5075181;28;20050;-72
2022/07/23 07:47:36;;;;;;;;;;;26.30;88.40;;;;;;5075378;28;19985;-72
2022/07/23 07:50:02;;;;;;;;;;;26.30;88.40;;;;;;5075436;28;20370;-72
2022/07/23 07:52:27;;;;;;;;;;;26.30;88.40;;;;;;5057441;28;19954;-72
2022/07/23 07:54:53;;;;;;;;;;;26.30;88.30;;;;;;5057268;28;19916;-71
2022/07/23 07:57:18;;;;;;;;;;;26.30;88.40;;;;;;5074975;28;19974;-72
2022/07/23 07:59:43;;;;;;;;;;;26.40;88.40;;;;;;5075222;28;19927;-72
2022/07/23 08:02:09;;;;;;;;;;;26.40;88.40;;;;;;5074617;28;19908;-72
2022/07/23 08:04:34;;;;;;;;;;;26.30;88.30;;;;;;5074938;28;19958;-71
2022/07/23 08:07:00;;;;;;;;;;;26.40;88.40;;;;;;5074490;28;19940;-72
2022/07/23 08:09:25;;;;;;;;;;;26.30;88.40;;;;;;5056880;28;19973;-72
2022/07/23 08:11:51;;;;;;;;;;;26.30;88.30;;;;;;5074587;28;19915;-71
2022/07/23 08:14:17;;;;;;;;;;;26.30;88.30;;;;;;5075036;28;19912;-71
2022/07/23 08:16:43;;;;;;;;;;;26.40;88.40;;;;;;5074665;28;19916;-71
2022/07/23 08:19:08;;;;;;;;;;;26.40;88.40;;;;;;5074830;28;19908;-71
2022/07/23 08:21:33;;;;;;;;;;;26.40;88.40;;;;;;5074287;28;19935;-72
2022/07/23 08:23:59;;;;;;;;;;;26.40;88.40;;;;;;5056563;28;19909;-72
2022/07/23 08:26:24;;;;;;;;;;;26.40;88.40;;;;;;5074315;28;19962;-71
2022/07/23 08:28:50;;;;;;;;;;;26.40;88.40;;;;;;5074712;28;19919;-71
2022/07/23 08:31:17;;;;;;;;;;;26.40;88.30;;;;;;5074446;28;19957;-71
2022/07/23 08:33:42;;;;;;;;;;;26.40;88.30;;;;;;5056327;28;19909;-72
2022/07/23 08:36:08;;;;;;;;;;;26.40;88.30;;;;;;5074263;28;19924;-71
2022/07/23 08:38:35;;;;;;;;;;;26.40;88.30;;;;;;5074470;28;19908;-72
2022/07/23 08:41:01;;;;;;;;;;;26.40;88.30;;;;;;5074054;28;19916;-72
2022/07/23 08:43:28;;;;;;;;;;;26.40;88.30;;;;;;5073974;28;20367;-71
2022/07/23 08:45:58;;;;;;;;;;;26.40;88.30;;;;;;5074211;28;19916;-71
2022/07/23 08:48:25;;;;;;;;;;;26.40;88.30;;;;;;5073819;28;19909;-71
2022/07/23 08:50:52;;;;;;;;;;;26.40;88.30;;;;;;5074693;28;19916;-70
2022/07/23 08:53:18;;;;;;;;;;;26.40;88.30;;;;;;5056286;28;19916;-71
2022/07/23 08:55:45;;;;;;;;;;;26.40;88.40;;;;;;5074145;28;20370;-71
2022/07/23 08:58:10;;;;;;;;;;;26.40;88.40;;;;;;5073344;28;20244;-71
2022/07/23 09:00:36;;;;;;;;;;;26.40;88.40;;;;;;5073786;28;19962;-72
2022/07/23 09:03:02;;;;;;;;;;;26.50;88.50;;;;;;5073706;28;19999;-71
2022/07/23 09:05:27;;;;;;;;;;;26.40;88.40;;;;;;5056066;28;19908;-71
2022/07/23 09:08:03;;;;;;;;;;;26.40;88.40;;;;;;5055633;28;20000;-71
2022/07/23 09:10:29;;;;;;;;;;;26.40;88.50;;;;;;5073730;28;19943;-71
2022/07/23 09:12:54;;;;;;;;;;;26.40;88.50;;;;;;5073113;28;19909;-71
2022/07/23 09:15:20;;;;;;;;;;;26.40;88.50;;;;;;5073484;28;19916;-70
2022/07/23 09:17:45;;;;;;;;;;;26.40;88.50;;;;;;5073573;28;19915;-71
2022/07/23 09:20:15;;;;;;;;;;;26.40;88.50;;;;;;5073521;28;19909;-71
2022/07/23 09:22:45;;;;;;;;;;;26.40;88.50;;;;;;5073548;28;19912;-71
2022/07/23 09:25:15;;;;;;;;;;;26.40;88.50;;;;;;5055696;28;19916;-71
2022/07/23 09:27:52;;;;;;;;;;;26.40;88.50;;;;;;5073326;28;20362;-71
2022/07/23 09:30:18;;;;;;;;;;;26.40;88.50;;;;;;5073606;28;19971;-71
2022/07/23 09:32:43;;;;;;;;;;;26.40;88.50;;;;;;5073617;28;19913;-71
2022/07/23 09:35:09;;;;;;;;;;;26.40;88.50;;;;;;5073446;28;19922;-71
2022/07/23 09:37:34;;;;;;;;;;;26.40;88.50;;;;;;5073597;28;19908;-71
2022/07/23 09:40:07;;;;;;;;;;;26.40;88.50;;;;;;5073091;28;19916;-71
2022/07/23 09:42:32;;;;;;;;;;;26.40;88.60;;;;;;5055394;28;20015;-72
2022/07/23 09:44:58;;;;;;;;;;;26.40;88.50;;;;;;5073659;28;19959;-71
2022/07/23 09:47:26;;;;;;;;;;;26.40;88.60;;;;;;5073396;28;20278;-71
2022/07/23 09:49:58;;;;;;;;;;;26.40;88.50;;;;;;5073314;28;20287;-71
2022/07/23 09:52:28;;;;;;;;;;;26.40;88.50;;;;;;5055501;28;20312;-71
2022/07/23 09:54:57;;;;;;;;;;;26.40;88.70;;;;;;5055601;28;21875;-72
2022/07/23 09:57:23;;;;;;;;;;;26.40;88.60;;;;;;5055400;28;19909;-71
2022/07/23 09:59:50;;;;;;;;;;;26.40;88.60;;;;;;5073329;28;19921;-71
2022/07/23 10:02:16;;;;;;;;;;;26.50;88.70;;;;;;5073723;28;19915;-71
2022/07/23 10:04:42;;;;;;;;;;;26.40;88.60;;;;;;5073244;28;20375;-71
2022/07/23 10:07:09;;;;;;;;;;;26.40;88.60;;;;;;5073285;28;19909;-72
2022/07/23 10:09:38;;;;;;;;;;;26.40;88.60;;;;;;5054588;28;20818;-71
2022/07/23 10:12:16;;;;;;;;;;;26.40;88.60;;;;;;5072861;28;19909;-71
2022/07/23 10:14:42;;;;;;;;;;;26.40;88.60;;;;;;5073203;28;19908;-71
2022/07/23 10:17:08;;;;;;;;;;;26.40;88.50;;;;;;5055132;28;20275;-71
2022/07/23 10:19:33;;;;;;;;;;;26.40;88.50;;;;;;5072807;28;19908;-71
2022/07/23 10:22:09;;;;;;;;;;;26.50;88.60;;;;;;5073371;28;19909;-71
2022/07/23 10:24:41;;;;;;;;;;;26.50;88.60;;;;;;5075357;28;19913;-71
2022/07/23 10:27:25;;;;;;;;;;;26.50;88.60;;;;;;5077114;28;19954;-71
2022/07/23 10:30:07;;;;;;;;;;;26.50;88.60;;;;;;5076810;28;19955;-70
2022/07/23 10:32:51;;;;;;;;;;;26.50;88.50;;;;;;5076733;28;19913;-71
2022/07/23 10:35:22;;;;;;;;;;;26.40;88.50;;;;;;5076408;28;20322;-72
2022/07/23 10:37:51;;;;;;;;;;;26.50;88.60;;;;;;5076232;28;19916;-72
2022/07/23 10:40:18;;;;;;;;;;;26.50;88.60;;;;;;5076718;28;19912;-72
2022/07/23 10:42:47;;;;;;;;;;;26.50;88.60;;;;;;5076501;28;19954;-72
2022/07/23 10:45:32;;;;;;;;;;;26.40;88.50;;;;;;5076417;28;19912;-72
2022/07/23 10:48:18;;;;;;;;;;;26.50;88.60;;;;;;5058333;28;19908;-71
2022/07/23 10:50:44;;;;;;;;;;;26.50;88.60;;;;;;5076101;28;19913;-71
2022/07/23 10:53:15;;;;;;;;;;;26.40;88.40;;;;;;5076551;28;19909;-72
2022/07/23 10:55:42;;;;;;;;;;;26.50;88.40;;;;;;5076188;28;19912;-72
2022/07/23 10:58:08;;;;;;;;;;;26.50;88.40;;;;;;5057844;28;19912;-71
2022/07/23 11:00:35;;;;;;;;;;;26.50;88.40;;;;;;5091601;28;19969;-72
2022/07/23 11:03:01;;;;;;;;;;;26.50;88.40;;;;;;5058266;28;20333;-71
2022/07/23 11:05:47;;;;;;;;;;;26.50;88.40;;;;;;5058285;28;19958;-72
2022/07/23 11:08:14;;;;;;;;;;;26.40;88.30;;;;;;5075226;28;19961;-71
2022/07/23 11:10:43;;;;;;;;;;;26.50;88.40;;;;;;5057861;28;19915;-71
2022/07/23 11:13:23;;;;;;;;;;;26.50;88.30;;;;;;5075697;28;19919;-71
2022/07/23 11:16:01;;;;;;;;;;;26.50;88.80;;;;;;5075780;28;19913;-72
2022/07/23 11:18:41;;;;;;;;;;;26.50;88.20;;;;;;5057759;28;19920;-71
2022/07/23 11:21:31;;;;;;;;;;;26.50;88.20;;;;;;5075744;28;19913;-71
2022/07/23 11:23:59;;;;;;;;;;;26.50;88.30;;;;;;5075703;28;19919;-71
2022/07/23 11:26:41;;;;;;;;;;;26.50;88.20;;;;;;5057770;28;19961;-71
2022/07/23 11:29:24;;;;;;;;;;;26.50;88.20;;;;;;5075663;28;19931;-72
2022/07/23 11:31:57;;;;;;;;;;;26.50;88.20;;;;;;5057744;28;19947;-71
2022/07/23 11:34:38;;;;;;;;;;;26.50;88.20;;;;;;5075527;28;20274;-71
2022/07/23 11:37:05;;;;;;;;;;;26.50;88.20;;;;;;5074941;28;19917;-71
2022/07/23 11:39:31;;;;;;;;;;;26.50;88.20;;;;;;5075156;28;19916;-71
2022/07/23 11:41:58;;;;;;;;;;;26.50;88.20;;;;;;5074875;28;19913;-71
2022/07/23 11:44:25;;;;;;;;;;;26.50;88.20;;;;;;5057180;28;20339;-71
2022/07/23 11:47:00;;;;;;;;;;;26.50;88.10;;;;;;5057197;28;19908;-71
2022/07/23 11:49:26;;;;;;;;;;;26.50;88.00;;;;;;5075196;28;19909;-70
2022/07/23 11:52:07;;;;;;;;;;;26.50;88.10;;;;;;5057312;28;20381;-71
2022/07/23 11:54:34;;;;;;;;;;;26.50;88.00;;;;;;5074993;28;19920;-71
2022/07/23 11:57:00;;;;;;;;;;;26.50;88.10;;;;;;5074890;28;20359;-71
2022/07/23 11:59:32;;;;;;;;;;;26.50;88.10;;;;;;5074681;28;19921;-71
2022/07/23 12:02:02;;;;;;;;;;;26.50;88.20;;;;;;5057200;28;19908;-71
2022/07/23 12:04:37;;;;;;;;;;;26.50;88.10;;;;;;5056927;28;19909;-71
2022/07/23 12:07:02;;;;;;;;;;;26.50;88.10;;;;;;5074363;28;20308;-71
2022/07/23 12:09:28;;;;;;;;;;;26.50;88.00;;;;;;5074520;28;19920;-72
2022/07/23 12:12:00;;;;;;;;;;;26.50;88.00;;;;;;5074823;28;19908;-70
2022/07/23 12:14:25;;;;;;;;;;;26.50;88.00;;;;;;5074670;28;19931;-70
2022/07/23 12:17:06;;;;;;;;;;;26.50;88.10;;;;;;5074332;28;20363;-71
2022/07/23 12:19:32;;;;;;;;;;;26.50;88.10;;;;;;5074406;28;19913;-71
2022/07/23 12:21:57;;;;;;;;;;;26.50;88.10;;;;;;5074503;28;19920;-71
2022/07/23 12:24:23;;;;;;;;;;;26.50;88.10;;;;;;5074216;28;20290;-70
2022/07/23 12:27:27;;;;;;;;;;;26.50;88.00;;;;;;5074226;28;19915;-71
2022/07/23 12:29:53;;;;;;;;;;;26.50;88.00;;;;;;5032222;28;20024;-72
2022/07/23 12:32:28;;;;;;;;;;;26.40;88.00;;;;;;5032025;28;20455;-71
2022/07/23 12:35:06;;;;;;;;;;;26.50;88.00;;;;;;5054683;28;19959;-70
2022/07/23 12:37:33;;;;;;;;;;;26.50;88.10;;;;;;5074391;28;19995;-72
2022/07/23 12:40:17;;;;;;;;;;;26.50;88.10;;;;;;5073985;28;20342;-71
2022/07/23 12:42:43;;;;;;;;;;;26.50;88.20;;;;;;5074309;28;19909;-71
2022/07/23 12:45:10;;;;;;;;;;;26.50;88.20;;;;;;5073861;28;19909;-71
2022/07/23 12:47:51;;;;;;;;;;;26.50;88.20;;;;;;5074081;28;20058;-71
2022/07/23 12:50:35;;;;;;;;;;;26.40;88.10;;;;;;5073974;28;20358;-71
2022/07/23 12:53:02;;;;;;;;;;;26.50;88.20;;;;;;5073969;28;19985;-71
2022/07/23 12:55:28;;;;;;;;;;;26.50;88.20;;;;;;5056062;28;19917;-71
2022/07/23 12:58:02;;;;;;;;;;;26.40;88.10;;;;;;5056143;28;19958;-70
2022/07/23 13:00:27;;;;;;;;;;;26.50;88.10;;;;;;5074154;28;20256;-71
2022/07/23 13:02:53;;;;;;;;;;;26.40;88.00;;;;;;5056038;28;19908;-72
2022/07/23 13:05:18;;;;;;;;;;;26.40;88.00;;;;;;5073559;28;20367;-71
2022/07/23 13:07:44;;;;;;;;;;;26.50;88.20;;;;;;5073383;28;19999;-71
2022/07/23 13:10:12;;;;;;;;;;;26.40;88.10;;;;;;5073774;28;19908;-71
2022/07/23 13:12:37;;;;;;;;;;;26.50;88.20;;;;;;5073777;28;19908;-71
2022/07/23 13:15:03;;;;;;;;;;;26.50;88.20;;;;;;5073572;28;20384;-71
2022/07/23 13:17:28;;;;;;;;;;;26.40;88.10;;;;;;5073251;28;19912;-71
2022/07/23 13:19:54;;;;;;;;;;;26.50;88.20;;;;;;5055353;28;19909;-71
2022/07/23 13:22:19;;;;;;;;;;;26.50;88.10;;;;;;5073513;28;19995;-71
2022/07/23 13:24:45;;;;;;;;;;;26.50;88.10;;;;;;5073392;28;19915;-71
2022/07/23 13:27:10;;;;;;;;;;;26.50;88.00;;;;;;5073402;28;19909;-71
2022/07/23 13:29:35;;;;;;;;;;;26.50;88.00;;;;;;5055554;28;19919;-71
2022/07/23 13:32:01;;;;;;;;;;;26.50;88.10;;;;;;5073779;28;20263;-70
2022/07/23 13:34:26;;;;;;;;;;;26.50;88.10;;;;;;5055561;28;19913;-70
2022/07/23 13:36:52;;;;;;;;;;;26.50;88.20;;;;;;5073650;28;20359;-71
2022/07/23 13:39:17;;;;;;;;;;;26.40;88.10;;;;;;5073195;28;19931;-71
2022/07/23 13:41:43;;;;;;;;;;;26.50;88.20;;;;;;5073268;28;19912;-71
2022/07/23 13:44:08;;;;;;;;;;;26.40;88.10;;;;;;5073099;28;20343;-70
2022/07/23 13:46:34;;;;;;;;;;;26.50;88.20;;;;;;5073502;28;19909;-70
2022/07/23 13:49:00;;;;;;;;;;;26.50;88.20;;;;;;5072933;28;19974;-70
2022/07/23 13:51:25;;;;;;;;;;;26.40;88.10;;;;;;5055498;28;20351;-69
2022/07/23 13:53:51;;;;;;;;;;;26.50;88.20;;;;;;5073221;28;19908;-70
2022/07/23 13:56:16;;;;;;;;;;;26.50;88.20;;;;;;5055289;28;19921;-70
2022/07/23 13:58:42;;;;;;;;;;;26.50;88.20;;;;;;5073653;28;19920;-70
2022/07/23 14:01:07;;;;;;;;;;;26.50;88.20;;;;;;5077242;28;19915;-70
2022/07/23 14:03:33;;;;;;;;;;;26.50;88.20;;;;;;5077215;28;19909;-70
2022/07/23 14:05:59;;;;;;;;;;;26.50;88.20;;;;;;5077069;28;19943;-70
2022/07/23 14:08:24;;;;;;;;;;;26.40;88.10;;;;;;5076994;28;19955;-70
2022/07/23 14:10:49;;;;;;;;;;;26.40;88.00;;;;;;5059241;28;19908;-70
2022/07/23 14:13:15;;;;;;;;;;;26.40;88.00;;;;;;5076761;28;19954;-70
2022/07/23 14:15:40;;;;;;;;;;;26.40;88.00;;;;;;5058911;28;20017;-71